EAST ASIA SECURITIES COMPANY LIMITED 東亞證券有限公司

CCASS holding changes from 2026-05-07 to 2026-05-08

From
to
Show unchanged holdings

"Value change" is the value of the holding change at the closing price at the end of the period. Hit the "stake change" to see history. "*"=stock is suspended or in parallel trading. Last close on this counter is used.

Some data are hidden to fit your display. Rotate?

Row Last
code
Name Holding Change Stake
%
Stake
Δ %
Value
change
Last
holding
1 1398 Industrial and Commercial Bank of China Limited:H 70,459,086 293,730 0.08 0.00 2,032,612 2026-05-08
2 9868 XPeng Inc.:A 286,100 32,000 0.02 0.00 1,961,600 2026-05-08
3 6869 Yangtze Optical Fibre and Cable Joint Stock Limited Company:H 90,500 7,000 0.02 0.00 1,722,000 2026-05-08
4 1211 BYD COMPANY LIMITED:H 1,616,800 14,900 0.04 0.00 1,486,275 2026-05-08
5 3690 Meituan:B 2,337,432 14,260 0.04 0.00 1,198,553 2026-05-08
6 1428 Bright Smart Securities & Commodities Group Limited:O 1,772,985 88,000 0.10 0.01 1,082,400 2026-05-08
7 7500 CSOP Hang Seng Index Daily (-2x) Inverse Product:Unit 14,230,700 535,000 0.73 0.03 880,610 2026-05-08
8 0291 China Resources Beer (Holdings) Company Limited:O 888,187 31,500 0.03 0.00 836,640 2026-05-08
9 0966 CHINA TAIPING INSURANCE HOLDINGS COMPANY LIMITED:O 616,317 30,000 0.02 0.00 709,800 2026-05-08
10 0066 MTR CORPORATION LIMITED:O 8,365,381 19,000 0.13 0.00 652,460 2026-05-08
11 1415 Cowell e Holdings Inc.:O 132,000 15,000 0.02 0.00 479,700 2026-05-08
12 6166 CIG SHANGHAI CO., LTD.:H 11,550 3,250 0.01 0.00 467,025 2026-05-08
13 2252 Shanghai MicroPort MedBot (Group) Co., Ltd.:H 95,500 16,000 0.01 0.00 464,320 2026-05-08
14 7552 CSOP Hang Seng TECH Index Daily (-2x) Inverse Product:Unit 11,294,100 285,200 0.67 0.02 439,208 2026-05-08
15 3069 ChinaAMC Hang Seng Biotech ETF:Unit 104,300 25,200 0.07 0.02 372,204 2026-05-08
16 3800 GCL Technology Holdings Limited (KY):O 38,170,400 400,000 0.11 0.00 364,000 2026-05-08
17 1787 Shandong Gold Mining Co., Ltd.:H 337,106 11,500 0.03 0.00 363,400 2026-05-08
18 2208 GOLDWIND SCIENCE&TECHNOLOGY CO., LTD.:H 674,715 20,000 0.09 0.00 347,000 2026-05-08
19 1836 Stella International Holdings Limited:O 1,574,900 22,500 0.19 0.00 342,900 2026-05-08
20 0175 GEELY AUTOMOBILE HOLDINGS LIMITED:O 5,063,500 14,000 0.05 0.00 318,360 2026-05-08
21 1093 CSPC PHARMACEUTICAL GROUP LIMITED:O 2,993,920 36,000 0.03 0.00 295,200 2026-05-08
22 6810 Shanghai Sunmi Technology Co., Ltd:H 10,800 3,800 0.00 0.00 285,000 2026-05-08
23 0189 DONGYUE GROUP LIMITED:O 1,052,000 22,000 0.06 0.00 280,060 2026-05-08
24 7747 CSOP Samsung Electronics Daily (2x) Leveraged Product:Unit 5,300 2,000 0.01 0.00 277,900 2026-05-08
25 0991 DATANG INTERNATIONAL POWER GENERATION COMPANY LIMITED:H 6,214,000 90,000 0.10 0.00 270,900 2026-05-08
26 0300 Midea Group Co., Ltd.:H 38,000 3,000 0.01 0.00 255,900 2026-05-08
27 1530 3SBio Inc.:O 443,500 11,000 0.02 0.00 245,520 2026-05-08
28 2643 CaoCao Inc.:O 31,600 10,000 0.01 0.00 239,200 2026-05-08
29 2013 Weimob Inc.:O 22,615,000 151,000 0.55 0.00 234,050 2026-05-08
30 0152 SHENZHEN INTERNATIONAL HOLDINGS LIMITED:O 3,090,377 31,000 0.13 0.00 231,570 2026-05-08
31 0101 HANG LUNG PROPERTIES LIMITED:O 1,687,847 24,000 0.03 0.00 217,200 2026-05-08
32 0813 Shimao Group Holdings Limited:O 35,851,385 1,300,000 0.37 0.01 211,900 2026-05-08
33 0868 XINYI GLASS HOLDINGS LIMITED:O 981,814 20,000 0.02 0.00 209,400 2026-05-08
34 2577 InnoScience (Suzhou) Technology Holding Co., Ltd.:H 103,700 3,000 0.02 0.00 196,500 2026-05-08
35 2269 WuXi Biologics (Cayman) Inc.:O 657,348 6,000 0.02 0.00 195,960 2026-05-08
36 0914 Anhui Conch Cement Company Limited:H 975,000 9,500 0.08 0.00 189,050 2026-05-08
37 0780 Tongcheng Travel Holdings Limited (KY):O 126,000 10,400 0.01 0.00 186,160 2026-05-08
38 6666 Evergrande Property Services Group Limited:O 7,809,637 110,000 0.07 0.00 162,800 2026-05-08
39 0392 BEIJING ENTERPRISES HOLDINGS LIMITED:O 428,000 5,000 0.03 0.00 158,000 2026-05-08
40 1857 China Everbright Water Limited:O 822,000 112,000 0.03 0.00 155,680 2026-05-08
41 9688 Zai Lab Limited:O 102,100 10,000 0.01 0.00 150,900 2026-05-08
42 1929 Chow Tai Fook Jewellery Group Limited:O 427,800 13,000 0.00 0.00 150,020 2026-05-08
43 68 Manycore Tech Inc.:O 233,500 6,000 0.01 0.00 149,400 2026-05-08
44 0020 SenseTime Group Inc.:B 56,240,000 71,000 0.13 0.00 146,260 2026-05-08
45 0568 SHANDONG MOLONG PETROLEUM MACHINERY COMPANY LIMITED:H 313,200 19,600 0.12 0.01 146,216 2026-05-08
46 1359 CHINA CINDA ASSET MANAGEMENT CO., LTD.:H 12,031,000 131,000 0.09 0.00 145,410 2026-05-08
47 0772 China Literature Limited:O 500,762 5,000 0.05 0.00 138,000 2026-05-08
48 2359 WuXi AppTec Co., Ltd.:H 23,571 1,000 0.00 0.00 135,100 2026-05-08
49 9992 POP MART INTERNATIONAL GROUP LIMITED:O 172,200 800 0.01 0.00 134,480 2026-05-08
50 9990 Archosaur Games Inc.:O 544,000 50,000 0.07 0.01 131,500 2026-05-08
51 6823 HKT Limited (KY):O 7,093,066 10,000 0.09 0.00 126,100 2026-05-08
52 3330 Lingbao Gold Group Company Ltd.:H 228,900 5,000 0.02 0.00 125,200 2026-05-08
53 1881 Regal Real Estate Investment Trust:Unit 8,346,910 289,000 0.26 0.01 119,935 2026-05-08
54 0819 Tianneng Power International Limited:O 570,000 18,000 0.05 0.00 112,680 2026-05-08
55 0390 CHINA RAILWAY GROUP LIMITED:H 16,928,291 29,000 0.40 0.00 112,520 2026-05-08
56 0975 Mongolian Mining Corporation:O 59,631 12,000 0.01 0.00 110,160 2026-05-08
57 1336 New China Life Insurance Company Ltd.:H 356,500 2,000 0.03 0.00 105,900 2026-05-08
58 2015 Li Auto Inc.:A 108,300 1,400 0.01 0.00 98,070 2026-05-08
59 2858 Yixin Group Limited:O 4,028,500 50,000 0.06 0.00 95,500 2026-05-08
60 2525 Hesai Group:B 34,260 540 0.03 0.00 93,636 2026-05-08
61 1769 Scholar Education Group:O 519,000 60,000 0.08 0.01 93,000 2026-05-08
62 2656 160 Health International Limited:O 6,000 4,000 0.00 0.00 92,560 2026-05-08
63 1033 Sinopec Oilfield Service Corporation:H 8,669,000 120,000 0.16 0.00 92,400 2026-05-08
64 2513 Knowledge Atlas Technology Joint Stock Company Limited:H 5,800 100 0.00 0.00 92,300 2026-05-08
65 0777 NetDragon Websoft Holdings Limited:O 773,000 10,000 0.15 0.00 91,200 2026-05-08
66 1801 Innovent Biologics, Inc.:O 38,500 1,000 0.00 0.00 90,000 2026-05-08
67 1258 China Nonferrous Mining Corporation Limited:O 106,000 6,000 0.00 0.00 88,500 2026-05-08
68 2319 CHINA MENGNIU DAIRY COMPANY LIMITED:O 1,295,000 5,000 0.03 0.00 87,150 2026-05-08
69 2510 T.S. Lines Limited:O 262,000 10,000 0.02 0.00 85,900 2026-05-08
70 2883 China Oilfield Services Limited:H 1,018,000 10,000 0.06 0.00 85,000 2026-05-08
71 1907 China Risun Group Limited (KY):O 54,000 30,000 0.00 0.00 80,400 2026-05-08
72 2498 RoboSense Technology Co., Ltd:O 387,900 2,400 0.08 0.00 80,352 2026-05-08
73 0836 CHINA RESOURCES POWER HOLDINGS COMPANY LIMITED:O 1,808,678 4,000 0.03 0.00 80,320 2026-05-08
74 7788 CSOP NVIDIA Daily (2x) Leveraged Product:Unit 1,380 450 0.40 0.13 79,898 2026-05-08
75 2688 ENN Energy Holdings Limited:O 71,400 1,300 0.01 0.00 79,170 2026-05-08
76 2507 Cirrus Aircraft Limited:O 45,600 2,000 0.01 0.00 75,920 2026-05-08
77 2655 Guoxia Technology Co., Ltd.:H 18,800 2,500 0.00 0.00 74,800 2026-05-08
78 3677 Jiangsu Zenergy Battery Technologies Group Co., Ltd.:H 78,000 9,000 0.01 0.00 73,800 2026-05-08
79 0384 CHINA GAS HOLDINGS LIMITED:O 4,014,181 10,000 0.07 0.00 73,500 2026-05-08
80 3968 CHINA MERCHANTS BANK CO., LTD.:H 2,175,479 1,500 0.05 0.00 70,860 2026-05-08
81 7568 CSOP NASDAQ-100 Index Daily (-2x) Inverse Product:Unit 6,908,760 28,000 1.21 0.00 70,280 2026-05-08
82 0576 ZHEJIANG EXPRESSWAY CO., LTD.:H 1,180,598 10,000 0.06 0.00 69,100 2026-05-08
83 1378 China Hongqiao Group Limited:O 693,500 2,000 0.01 0.00 68,000 2026-05-08
84 2623 Add New Energy Investment Holdings Group Limited:O 851,563 12,000 0.16 0.00 67,560 2026-05-08
85 2670 Beijing Yunji Technology Co., Ltd.:H 300 200 0.00 0.00 67,400 2026-05-08
86 3750 Contemporary Amperex Technology Co., Limited:H 40,700 100 0.02 0.00 65,100 2026-05-08
87 3696 InSilico Medicine Cayman TopCo:O 23,500 1,000 0.00 0.00 64,300 2026-05-08
88 1789 AK Medical Holdings Limited:O 256,000 10,000 0.02 0.00 63,300 2026-05-08
89 0008 PCCW LIMITED:O 15,382,443 10,000 0.20 0.00 62,700 2026-05-08
90 1588 Chanjet Information Technology Company Limited:H 34,800 10,400 0.03 0.01 61,152 2026-05-08
91 1953 Rimbaco Group Global Limited:O 745,000 50,000 0.06 0.00 61,000 2026-05-08
92 0763 ZTE CORPORATION:H 605,364 2,200 0.08 0.00 60,280 2026-05-08
93 0136 China Ruyi Holdings Limited:O 7,042,048 40,000 0.04 0.00 57,200 2026-05-08
94 2617 TransThera Sciences (Nanjing), Inc.:H 60,500 1,000 0.02 0.00 55,200 2026-05-08
95 9660 Horizon Robotics:B 5,002,200 7,800 0.04 0.00 54,756 2026-05-08
96 6651 Beijing 51WORLD Digital Twin Technology Co., Ltd.:H 17,400 1,000 0.00 0.00 53,300 2026-05-08
97 1757 Global Chinese Business Club:O 105,000 3,000 0.01 0.00 53,220 2026-05-08
98 0460 Sihuan Pharmaceutical Holdings Group Ltd.:O 14,774,000 43,000 0.16 0.00 52,460 2026-05-08
99 1451 MS Group Holdings Limited:O 1,262,000 34,000 0.62 0.02 52,360 2026-05-08
100 3419 Global X HSI Components Covered Call Active ETF:Unit 324,000 5,000 0.25 0.00 52,300 2026-05-08
101 9606 Duality Biotherapeutics, Inc.:O 1,600 200 0.00 0.00 51,200 2026-05-08
102 0164 China Baoli Technologies Holdings Limited:O 243,306 100,000 0.07 0.03 51,000 2026-05-08
103 2495 Voicecomm Technology Co., Ltd.:H 26,080 1,000 0.08 0.00 50,600 2026-05-08
104 1057 Zhejiang Shibao Company Limited:H 340,000 10,000 0.16 0.00 50,600 2026-05-08
105 0322 TINGYI (CAYMAN ISLANDS) HOLDING CORP.:O 192,000 4,000 0.00 0.00 49,840 2026-05-08
106 1083 Towngas Smart Energy Company Limited:O 8,133,432 14,000 0.22 0.00 49,420 2026-05-08
107 2333 GREAT WALL MOTOR COMPANY LIMITED (CN):H 2,115,250 4,000 0.09 0.00 48,440 2026-05-08
108 9866 NIO Inc.:A 145,150 1,000 0.01 0.00 46,740 2026-05-08
109 0323 MAANSHAN IRON & STEEL COMPANY LIMITED:H 6,038,000 18,000 0.35 0.00 46,080 2026-05-08
110 0241 Alibaba Health Information Technology Limited:O 8,430,000 10,000 0.05 0.00 46,000 2026-05-08
111 2388 BOC HONG KONG (HOLDINGS) LIMITED (HK):O 9,945,443 1,000 0.09 0.00 45,460 2026-05-08
112 600 Axera Semiconductor Co., Ltd.:H 72,000 2,000 0.01 0.00 45,440 2026-05-08
113 6060 ZhongAn Online P & C Insurance Co., Ltd.:H 1,282,700 3,500 0.08 0.00 42,770 2026-05-08
114 1066 Shandong Weigao Group Medical Polymer Company Limited:H 186,800 12,000 0.00 0.00 42,120 2026-05-08
115 0580 Sun.King Technology Group Limited:O 456,000 20,000 0.03 0.00 41,000 2026-05-08
116 0931 China HK Power Smart Energy Group Limited:O 5,356,562 100,000 0.07 0.00 40,500 2026-05-08
117 1725 China Strategic Technology Group Limited:O 2,844,400 70,000 0.35 0.01 39,900 2026-05-08
118 3833 Xinjiang Xinxin Mining Industry Co., Ltd.:H 3,751,000 15,000 0.39 0.00 39,600 2026-05-08
119 3898 Zhuzhou CRRC Times Electric Co., Ltd.:H 354,900 1,000 0.07 0.00 37,260 2026-05-08
120 1920 China Wacan Group Company Limited:O 2,019,000 50,000 0.39 0.01 37,000 2026-05-08
121 6936 S.F. Holding Co., Ltd.:H 110,600 1,000 0.05 0.00 35,640 2026-05-08
122 6600 OneRobotics (Shenzhen) Co., Ltd.:H 3,200 300 0.00 0.00 34,500 2026-05-08
123 2866 COSCO SHIPPING Development Co., Ltd.:H 17,292,500 30,000 0.50 0.00 34,200 2026-05-08
124 2380 CHINA POWER INTERNATIONAL DEVELOPMENT LIMITED:O 20,172,818 10,000 0.16 0.00 33,800 2026-05-08
125 0398 ORIENTAL WATCH HOLDINGS LIMITED:O 1,709,030 10,000 0.35 0.00 33,000 2026-05-08
126 0027 GALAXY ENTERTAINMENT GROUP LIMITED:O 2,109,449 1,000 0.05 0.00 32,780 2026-05-08
127 0728 CHINA TELECOM CORPORATION LIMITED:H 12,432,000 6,000 0.09 0.00 32,520 2026-05-08
128 0297 Sinofert Holdings Limited:O 3,972,000 20,000 0.06 0.00 31,600 2026-05-08
129 0465 FUTONG TECHNOLOGY DEVELOPMENT HOLDINGS LIMITED:O 98,000 10,000 0.03 0.00 30,700 2026-05-08
130 0581 CHINA ORIENTAL GROUP COMPANY LIMITED:O 684,000 24,000 0.02 0.00 30,240 2026-05-08
131 1818 Zhaojin Mining Industry Company Limited:H 478,259 1,000 0.02 0.00 29,900 2026-05-08
132 2328 PICC PROPERTY AND CASUALTY COMPANY LIMITED:H 4,378,950 2,000 0.06 0.00 29,760 2026-05-08
133 0347 Angang Steel Company Limited:H 16,457,860 20,000 1.17 0.00 29,400 2026-05-08
134 1340 Huisheng International Holdings Limited:O 5,893,000 500,000 0.64 0.05 28,500 2026-05-08
135 2238 Guangzhou Automobile Group Co., Ltd.:H 3,027,878 10,000 0.11 0.00 27,700 2026-05-08
136 2012 SUNSHINE OILSANDS LTD.:O 739,730 80,000 0.10 0.01 27,600 2026-05-08
137 0854 Willas-Array Electronics (Holdings) Limited:O 7,000 4,000 0.01 0.00 27,080 2026-05-08
138 3317 Shenzhen Xunce Technology Co., Ltd.:H 6,200 100 0.00 0.00 25,000 2026-05-08
139 9626 Bilibili Inc.:Z ord 47,220 140 0.01 0.00 24,892 2026-05-08
140 2588 BOC AVIATION LIMITED:O 12,000 300 0.00 0.00 24,585 2026-05-08
141 0987 China Renewable Energy Investment Limited:O 5,692,980 100,000 0.23 0.00 22,800 2026-05-08
142 3899 CIMC Enric Holdings Limited:O 570,000 2,000 0.03 0.00 21,560 2026-05-08
143 2050 ZHEJIANG SANHUA INTELLIGENT CONTROLS CO., LTD.:H 154,300 600 0.03 0.00 21,324 2026-05-08
144 2575 Xuanzhu Biopharmaceutical Co., Ltd.:H 15,510 1,000 0.01 0.00 21,300 2026-05-08
145 3355 FS.COM Limited:H 1,000 500 0.00 0.00 21,110 2026-05-08
146 0013 HUTCHMED (China) Limited:O 530,000 1,000 0.06 0.00 21,000 2026-05-08
147 0014 HYSAN DEVELOPMENT COMPANY LIMITED:O 931,638 1,000 0.09 0.00 20,340 2026-05-08
148 1164 CGN Mining Company Limited:O 1,695,066 5,000 0.02 0.00 20,200 2026-05-08
149 1641 Hongxing Coldchain (Hunan) Co., Ltd.:H 46,000 3,000 0.19 0.01 20,010 2026-05-08
150 0546 Fufeng Group Limited:O 366,886 3,000 0.01 0.00 19,800 2026-05-08
151 0017 NEW WORLD DEVELOPMENT COMPANY LIMITED:O 3,734,553 2,000 0.15 0.00 19,180 2026-05-08
152 2590 Beijing Geekplus Technology Co., Ltd.:H 129,000 1,000 0.01 0.00 18,940 2026-05-08
153 0302 CMGE Technology Group Limited:O 3,964,000 64,000 0.13 0.00 18,560 2026-05-08
154 1060 Damai Entertainment Holdings Limited (BM):O 10,358,400 30,000 0.03 0.00 18,300 2026-05-08
155 0918 Majestic Dragon AeroTech Holdings Limited:O 278,800 18,000 0.03 0.00 17,640 2026-05-08
156 9939 Kintor Pharmaceutical Limited:O 1,458,500 6,000 0.29 0.00 17,520 2026-05-08
157 1712 DRAGON MINING LIMITED:O 7,000 2,000 0.00 0.00 17,380 2026-05-08
158 2685 Quantgroup Holding Limited:O 19,000 1,000 0.00 0.00 17,310 2026-05-08
159 1523 Plover Bay Technologies Limited:O 150,000 2,000 0.01 0.00 17,240 2026-05-08
160 0697 Shoucheng Holdings Limited:O 17,394,400 10,000 0.21 0.00 17,200 2026-05-08
161 1672 Ascletis Pharma Inc.:O 654,000 1,000 0.06 0.00 16,940 2026-05-08
162 1860 Mobvista Inc.:O 118,000 1,000 0.01 0.00 16,740 2026-05-08
163 6687 JST Group Corporation Limited:O 7,300 1,000 0.00 0.00 16,420 2026-05-08
164 6036 Apex Ace Holding Limited:O 175,000 20,000 0.02 0.00 16,200 2026-05-08
165 6680 JL MAG RARE-EARTH CO., LTD.:H 420,640 800 0.18 0.00 16,000 2026-05-08
166 1508 China Reinsurance (Group) Corporation:H 5,849,000 12,000 0.09 0.00 15,480 2026-05-08
167 0018 Oriental Media Group Limited:O 5,741,360 50,000 0.24 0.00 13,750 2026-05-08
168 7399 CSOP MicroStrategy Daily (-2x) Inverse Product:Unit 2,300 500 0.33 0.07 11,990 2026-05-08
169 1333 Breton Technology Co., Ltd.:H 10,600 600 0.00 0.00 10,422 2026-05-08
170 1715 AI Health Technology Limited:O 36,000 20,000 0.01 0.01 10,200 2026-05-08
171 2562 Synagistics Limited (KY):A 1,102,500 4,000 0.24 0.00 9,760 2026-05-08
172 6908 HG Semiconductor Limited (KY):O 2,240,500 20,000 0.19 0.00 9,700 2026-05-08
173 0632 CHK Oil Limited (BM):O 1,094,217 40,000 0.13 0.00 9,640 2026-05-08
174 9885 YSB Inc.:O 90,800 2,000 0.01 0.00 9,640 2026-05-08
175 9869 HELENS INTERNATIONAL HOLDINGS COMPANY LIMITED:O 1,816,000 8,500 0.14 0.00 9,350 2026-05-08
176 1932 CPM Group Limited (KY):O 526,166 28,000 0.05 0.00 8,820 2026-05-08
177 6978 Immunotech Biopharm Ltd:O 150,224 10,000 0.02 0.00 8,700 2026-05-08
178 7515 CSOP Nikkei 225 Daily (-2x) Inverse Product:Unit 58,920 500 0.47 0.00 8,440 2026-05-08
179 0037 FAR EAST HOTELS AND ENTERTAINMENT LIMITED:O 1,395,280 16,000 0.19 0.00 8,160 2026-05-08
180 2203 Brainhole Technology Limited:O 1,030,000 40,000 0.13 0.00 8,120 2026-05-08
181 1937 JiaChen Holding Group Limited:O 170,000 40,000 0.02 0.00 8,000 2026-05-08
182 3328 Bank of Communications Co., Ltd.:H 14,672,322 1,100 0.04 0.00 7,953 2026-05-08
183 1142 E&P Global Holdings Limited:O 2,392,912 60,000 0.02 0.00 7,740 2026-05-08
184 1137 Hong Kong Technology Venture Company Limited:O 1,616,089 6,000 0.20 0.00 6,840 2026-05-08
185 1499 OKG Technology Holdings Limited:O 11,640,000 40,000 0.22 0.00 5,760 2026-05-08
186 6893 Hin Sang Group (International) Holding Co. Ltd.:O 166,000 40,000 0.02 0.00 4,960 2026-05-08
187 1618 Metallurgical Corporation of China Ltd.:H 8,503,000 3,000 0.30 0.00 4,860 2026-05-08
188 2517 Guoquan Food (Shanghai) Co., Ltd.:H 33,200 1,200 0.00 0.00 3,972 2026-05-08
189 2324 Capital VC Limited:O 3,431,768 20,000 0.38 0.00 2,720 2026-05-08
190 0550 Allegro Culture Limited:O 546,000 2,000 0.12 0.00 2,380 2026-05-08
191 1918 Sunac China Holdings Limited:O 11,002,000 2,000 0.07 0.00 2,320 2026-05-08
192 8040 COOLPOINT INNONISM HOLDING LIMITED:O 1,285,000 5,000 0.38 0.00 2,100 2026-05-08
193 2178 Petro-king Oilfield Services Limited:O 936,780 10,000 0.05 0.00 2,080 2026-05-08
194 1000 BEIJING MEDIA CORPORATION LIMITED:H 26,500 500 0.05 0.00 325 2026-05-08
195 1868 Neo-Neon Holdings Limited:O 1,227,500 500 0.06 0.00 183 2026-05-08
196 3913 KWG Living Group Holdings Limited:O 2,506,756 269 0.12 0.00 49 2026-05-08
197 8021 WLS HOLDINGS LIMITED (BM):O 55,425 -100 0.02 -0.00 -29 2026-05-08
198 0326 CHINA STAR ENTERTAINMENT LIMITED:O 399,739 -12 0.02 -0.00 -103 2026-05-08
199 6158 Zhenro Properties Group Limited:O 2,254,000 -10,000 0.05 -0.00 -170 2026-05-08
200 0405 Yuexiu Real Estate Investment Trust:Unit 19,817,069 -257 0.37 -0.00 -190 2026-05-08
201 0672 Zhong An Group Limited:O 9,097,000 -2,400 0.16 -0.00 -242 2026-05-08
202 1539 Unity Group Holdings International Limited:O 1,346,000 -4,000 0.04 -0.00 -1,600 2026-05-08
203 0875 Congyu Intelligent Agricultural Holdings Limited:O 250,403 -2,700 0.05 -0.00 -1,647 2026-05-08
204 8037 China Biotech Services Holdings Limited:O 62,000 -3,000 0.01 -0.00 -1,890 2026-05-08
205 0842 Leoch International Technology Limited:O 526,000 -2,000 0.04 -0.00 -2,000 2026-05-08
206 3669 China Yongda Automobiles Services Holdings Limited:O 515,500 -2,000 0.03 -0.00 -2,020 2026-05-08
207 1945 Zero2IPO Holdings Inc.:O 76,400 -1,200 0.03 -0.00 -2,172 2026-05-08
208 0065 Grand Ocean Advanced Resources Company Limited:O 170,082 -8,000 0.07 -0.00 -2,240 2026-05-08
209 9618 JD.com, Inc.:A 702,923 -19 0.02 -0.00 -2,252 2026-05-08
210 0127 CHINESE ESTATES HOLDINGS LIMITED:O 1,143,000 -2,000 0.06 -0.00 -2,520 2026-05-08
211 2823 iShares FTSE China A50 ETF:Unit 2,521,099 -200 0.28 -0.00 -3,478 2026-05-08
212 0451 GCL New Energy Holdings Limited:O 1,423,028 -4,000 0.08 -0.00 -3,480 2026-05-08
213 1187 Cofoe Medical Technology Co., Ltd.:H 600 -100 0.00 -0.00 -3,638 2026-05-08
214 8637 Metasurface Technologies Holdings Limited:O 1,000 -1,000 0.00 -0.00 -3,640 2026-05-08
215 0986 Dufu Liquor Group Limited:O 1,679,284 -92,000 0.13 -0.01 -4,048 2026-05-08
216 2535 WK Group (Holdings) Limited:O 20,000 -10,000 0.00 -0.00 -5,200 2026-05-08
217 3109 CSOP STAR 50 Index ETF:Unit 13,400 -400 0.04 -0.00 -6,352 2026-05-08
218 1251 SPT Energy Group Inc.:O 2,196,000 -30,000 0.11 -0.00 -7,950 2026-05-08
219 0951 CHAOWEI POWER HOLDINGS LIMITED:O 700,000 -4,000 0.06 -0.00 -8,320 2026-05-08
220 2652 CF PharmTech, Inc. (CN):H 14,500 -500 0.00 -0.00 -10,950 2026-05-08
221 0308 CHINA TRAVEL INTERNATIONAL INVESTMENT HONG KONG LIMITED:O 11,554,293 -10,000 0.21 -0.00 -11,400 2026-05-08
222 0345 VITASOY INTERNATIONAL HOLDINGS LIMITED:O 1,828,750 -2,000 0.18 -0.00 -12,580 2026-05-08
223 6886 Huatai Securities Co., Ltd.:H 1,134,200 -800 0.07 -0.00 -13,120 2026-05-08
224 0124 Guangdong Land Holdings Limited:O 4,260,121 -54,000 0.25 -0.00 -13,176 2026-05-08
225 1617 Nanfang Communication Holdings Limited:O 660,000 -16,000 0.04 -0.00 -13,280 2026-05-08
226 2477 WellCell Holdings Co., Limited:O 25,600 -3,200 0.00 -0.00 -13,696 2026-05-08
227 2601 China Pacific Insurance (Group) Co., Ltd.:H 507,400 -400 0.02 -0.00 -14,176 2026-05-08
228 7366 CSOP Tesla Daily (-2x) Inverse Product:Unit 6,130 -1,600 0.13 -0.03 -15,680 2026-05-08
229 2878 Solomon Systech (International) Limited:O 12,536,000 -40,000 0.50 -0.00 -17,200 2026-05-08
230 0125 SUN HING VISION GROUP HOLDINGS LIMITED:O 44,381 -60,000 0.02 -0.02 -18,000 2026-05-08
231 3700 Inkeverse Group Limited:O 629,000 -20,000 0.03 -0.00 -18,200 2026-05-08
232 1357 Meitu, Inc.:O 2,529,500 -3,500 0.06 -0.00 -18,375 2026-05-08
233 3300 CHINA GLASS HOLDINGS LIMITED:O 2,284,000 -40,000 0.12 -0.00 -19,600 2026-05-08
234 0425 Minth Group Limited:O 26,900 -500 0.00 -0.00 -19,840 2026-05-08
235 1798 China Datang Corporation Renewable Power Co., Limited:H 1,380,000 -13,000 0.06 -0.00 -21,320 2026-05-08
236 0050 HONG KONG FERRY (HOLDINGS) COMPANY LIMITED:O 704,080 -4,000 0.20 -0.00 -21,920 2026-05-08
237 1988 China Minsheng Banking Corp., Ltd.:H 10,449,684 -6,364 0.13 -0.00 -22,719 2026-05-08
238 1186 China Railway Construction Corporation Limited:H 5,836,000 -4,500 0.28 -0.00 -23,580 2026-05-08
239 1830 Perfect Medical Health Management Limited (KY):O 876,693 -20,000 0.07 -0.00 -24,200 2026-05-08
240 2778 Champion Real Estate Investment Trust:Unit 3,838,797 -10,000 0.06 -0.00 -24,300 2026-05-08
241 0376 Yunfeng Financial Group Limited:O 1,280,346 -10,000 0.03 -0.00 -26,800 2026-05-08
242 2007 Country Garden Holdings Company Limited:O 71,322,114 -100,000 0.16 -0.00 -27,000 2026-05-08
243 2659 Shanghai Bao Pharmaceuticals Co., Ltd.:H 6,700 -1,000 0.00 -0.00 -27,400 2026-05-08
244 1472 Sang Hing Holdings (International) Limited:O 180,000 -220,000 0.02 -0.02 -27,720 2026-05-08
245 1193 China Resources Gas Group Limited:O 430,200 -1,500 0.02 -0.00 -28,650 2026-05-08
246 0365 Sino ICT Holdings Limited:O 344,411 -26,000 0.02 -0.00 -29,900 2026-05-08
247 6969 Smoore International Holdings Limited:O 282,000 -3,000 0.00 -0.00 -30,060 2026-05-08
248 0317 CSSC Offshore & Marine Engineering (Group) Company Limited:H 749,800 -2,000 0.13 -0.00 -31,220 2026-05-08
249 6110 Topsports International Holdings Limited:O 753,000 -11,000 0.01 -0.00 -32,450 2026-05-08
250 7288 CSOP Hang Seng China Enterprises Index Daily (2x) Leveraged Product:Unit 95,000 -10,000 0.12 -0.01 -32,900 2026-05-08
251 2255 Haichang Ocean Park Holdings Ltd.:O 585,000 -80,000 0.00 -0.00 -34,400 2026-05-08
252 1611 Bitfire Group Holdings Limited (VG):O 377,000 -14,000 0.05 -0.00 -36,260 2026-05-08
253 1310 HKBN Ltd.:O 717,203 -5,000 0.05 -0.00 -36,450 2026-05-08
254 0960 Longfor Group Holdings Limited:O 420,172 -4,000 0.01 -0.00 -36,600 2026-05-08
255 9636 JF SmartInvest Holdings Ltd:O 11,700 -1,000 0.00 -0.00 -38,740 2026-05-08
256 1879 Shanghai Xizhi Technology Co., Ltd.:H 2,280 -45 0.00 -0.00 -38,745 2026-05-08
257 2701 NSING TECHNOLOGIES INC.:H 2,200 -3,000 0.00 -0.00 -39,480 2026-05-08
258 1045 APT SATELLITE HOLDINGS LIMITED:O 893,625 -10,000 0.10 -0.00 -40,000 2026-05-08
259 2727 Shanghai Electric Group Company Limited:H 4,220,000 -10,000 0.14 -0.00 -40,000 2026-05-08
260 2338 WEICHAI POWER CO., LTD.:H 347,520 -1,000 0.02 -0.00 -41,400 2026-05-08
261 1385 Shanghai Fudan Microelectronics Group Company Limited:H 42,000 -1,000 0.01 -0.00 -42,480 2026-05-08
262 3081 Value Gold ETF:Unit 59,700 -2,000 0.03 -0.00 -44,360 2026-05-08
263 1729 TIME INTERCONNECT TECHNOLOGY LIMITED:O 266,000 -2,000 0.01 -0.00 -45,400 2026-05-08
264 1735 Central New Energy Holding Group Limited:O 0 -5,000 0.00 -0.00 -45,650 2026-05-08
265 0762 CHINA UNICOM (HONG KONG) LIMITED:O 5,351,834 -6,000 0.02 -0.00 -45,840 2026-05-08
266 3151 Premia China STAR50 ETF:Unit 0 -4,000 0.00 -0.01 -45,920 2026-05-08
267 2718 Mininglamp Technology:A 800 -200 0.00 -0.00 -46,280 2026-05-08
268 3699 Everbright Grand China Assets Limited:O 1,846,000 -100,000 0.42 -0.02 -46,500 2026-05-08
269 0363 SHANGHAI INDUSTRIAL HOLDINGS LIMITED:O 2,799,000 -3,000 0.26 -0.00 -46,950 2026-05-08
270 0133 CHINA MERCHANTS CHINA DIRECT INVESTMENTS LIMITED:O 235,522 -2,000 0.15 -0.00 -48,400 2026-05-08
271 1800 China Communications Construction Company Limited:H 18,259,852 -11,000 0.41 -0.00 -49,830 2026-05-08
272 1209 China Resources Mixc Lifestyle Services Limited:O 58,743 -1,000 0.00 -0.00 -50,200 2026-05-08
273 1072 Dongfang Electric Corporation Limited:H 256,000 -1,400 0.06 -0.00 -51,296 2026-05-08
274 2689 Nine Dragons Paper (Holdings) Limited:O 1,827,000 -8,000 0.04 -0.00 -51,920 2026-05-08
275 0753 Air China Limited:H 3,388,000 -10,000 0.07 -0.00 -53,200 2026-05-08
276 0808 Prosperity Real Estate Investment Trust:Unit 8,086,031 -36,000 0.51 -0.00 -54,000 2026-05-08
277 9903 Shanghai Iluvatar CoreX Semiconductor Co., Ltd.:H 4,400 -100 0.00 -0.00 -55,400 2026-05-08
278 7799 CSOP MicroStrategy Daily (2x) Leveraged Product:Unit 0 -5,660 0.00 -0.08 -55,638 2026-05-08
279 1339 People's Insurance Company (Group) of China Limited (The):H 4,887,000 -10,000 0.06 -0.00 -55,700 2026-05-08
280 1091 South Manganese Investment Limited:O 1,857,818 -100,000 0.04 -0.00 -57,000 2026-05-08
281 7299 CSOP Gold Futures Daily (2x) Leveraged Product:Unit 306,800 -2,000 0.49 -0.00 -57,920 2026-05-08
282 1989 Delton Technology (Guangzhou) Inc.:H 5,100 -300 0.01 -0.00 -58,800 2026-05-08
283 6181 Laopu Gold Co., Ltd.:H 17,800 -100 0.01 -0.00 -59,250 2026-05-08
284 3339 Lonking Holdings Limited:O 4,703,000 -18,000 0.11 -0.00 -59,940 2026-05-08
285 3908 China International Capital Corporation Limited:H 350,800 -2,800 0.02 -0.00 -60,088 2026-05-08
286 1102 Enviro Energy International Holdings Limited:O 3,872,390 -1,000,000 0.14 -0.04 -61,000 2026-05-08
287 0669 TECHTRONIC INDUSTRIES COMPANY LIMITED:O 204,000 -500 0.01 -0.00 -61,600 2026-05-08
288 2722 Chongqing Machinery & Electric Co., Ltd.:H 5,014,000 -18,000 0.46 -0.00 -62,100 2026-05-08
289 2202 China Vanke Company Limited:H 5,963,500 -19,700 0.27 -0.00 -62,252 2026-05-08
290 0902 HUA NENG POWER INTERNATIONAL, INC.:H 1,784,000 -10,000 0.04 -0.00 -65,800 2026-05-08
291 1686 SUNEVISION HOLDINGS LTD.:O 3,239,282 -10,000 0.14 -0.00 -66,000 2026-05-08
292 3896 Kingsoft Cloud Holdings Limited:O 1,964,000 -8,000 0.04 -0.00 -66,160 2026-05-08
293 0288 WH Group Limited (KY):O 2,890,745 -7,000 0.02 -0.00 -68,600 2026-05-08
294 0173 K. WAH INTERNATIONAL HOLDINGS LIMITED:O 3,123,355 -30,000 0.10 -0.00 -70,500 2026-05-08
295 3329 BOCOM International Holdings Company Limited:O 2,594,477 -140,000 0.09 -0.01 -72,800 2026-05-08
296 100 MiniMax Group Inc.:A 13,460 -100 0.01 -0.00 -74,250 2026-05-08
297 0683 KERRY PROPERTIES LIMITED:O 257,499 -3,000 0.02 -0.00 -75,060 2026-05-08
298 1816 CGN Power Co., Ltd.:H 11,808,000 -22,000 0.11 -0.00 -76,120 2026-05-08
299 0083 SINO LAND COMPANY LIMITED:O 1,603,146 -6,000 0.02 -0.00 -77,100 2026-05-08
300 0817 China Jinmao Holdings Group Limited:O 1,956,121 -40,000 0.01 -0.00 -77,200 2026-05-08
301 1208 MMG Limited (HK):O 2,480,279 -8,000 0.02 -0.00 -80,000 2026-05-08
302 1128 Wynn Macau, Limited:O 1,480,400 -14,000 0.03 -0.00 -81,620 2026-05-08
303 0839 China Education Group Holdings Limited (KY):O 362,000 -40,000 0.01 -0.00 -82,000 2026-05-08
304 2282 MGM China Holdings Limited:O 844,400 -7,600 0.02 -0.00 -86,260 2026-05-08
305 0595 AV CONCEPT HOLDINGS LIMITED:O 1,867,840 -60,000 0.21 -0.01 -89,400 2026-05-08
306 1114 BRILLIANCE CHINA AUTOMOTIVE HOLDINGS LIMITED:O 6,523,980 -30,000 0.13 -0.00 -89,700 2026-05-08
307 2840 SPDR Gold Trust:Unit 18,360 -27 0.01 -0.00 -91,746 2026-05-08
308 1698 Tencent Music Entertainment Group:A 149,300 -2,500 0.01 -0.00 -93,500 2026-05-08
309 7709 CSOP SK Hynix Daily (2x) Leveraged Product:Unit 62,000 -1,200 0.01 -0.00 -94,176 2026-05-08
310 0521 CWT International Limited:O 7,898,535 -400,000 0.07 -0.00 -94,800 2026-05-08
311 3759 Pharmaron Beijing Co., Ltd.:H 16,500 -5,000 0.00 -0.00 -96,700 2026-05-08
312 1028 C.banner International Holdings Limited:O 60,000 -100,000 0.00 -0.00 -98,000 2026-05-08
313 0696 TRAVELSKY TECHNOLOGY LIMITED:H 897,000 -10,000 0.10 -0.00 -100,000 2026-05-08
314 0012 HENDERSON LAND DEVELOPMENT COMPANY LIMITED:O 3,176,927 -3,000 0.07 -0.00 -101,760 2026-05-08
315 2099 CHINA GOLD INTERNATIONAL RESOURCES CORP. LTD.:O 13,600 -600 0.00 -0.00 -102,900 2026-05-08
316 470 Wuxi Lead Intelligent Equipment Co., Ltd. (CN):H 15,300 -2,000 0.01 -0.00 -109,000 2026-05-08
317 3145 ChinaAMC Asia High Dividend ETF:Unit 204,800 -7,400 0.40 -0.01 -112,258 2026-05-08
318 3311 CHINA STATE CONSTRUCTION INTERNATIONAL HOLDINGS LIMITED:O 1,964,235 -12,000 0.04 -0.00 -112,560 2026-05-08
319 2631 SICC Co., Ltd:H 5,500 -1,600 0.01 -0.00 -112,800 2026-05-08
320 2600 ALUMINUM CORPORATION OF CHINA LIMITED:H 3,406,959 -10,000 0.09 -0.00 -115,400 2026-05-08
321 1810 Xiaomi Corporation:B 6,794,600 -3,800 0.03 -0.00 -120,384 2026-05-08
322 3993 CMOC Group Limited (CN):H 4,344,000 -6,000 0.11 -0.00 -120,960 2026-05-08
323 0552 China Communications Services Corporation Limited:H 2,476,012 -27,600 0.10 -0.00 -121,440 2026-05-08
324 2343 PACIFIC BASIN SHIPPING LIMITED:O 3,131,023 -40,000 0.06 -0.00 -134,000 2026-05-08
325 1883 CITIC Telecom International Holdings Limited:O 6,177,801 -50,000 0.17 -0.00 -141,000 2026-05-08
326 1113 CK Asset Holdings Limited (KY):O 2,794,053 -3,000 0.08 -0.00 -153,900 2026-05-08
327 1109 CHINA RESOURCES LAND LIMITED:O 286,169 -4,500 0.00 -0.00 -165,420 2026-05-08
328 6088 FOXCONN INTERCONNECT TECHNOLOGY LIMITED:O 1,129,000 -19,000 0.02 -0.00 -172,520 2026-05-08
329 2828 Hang Seng China Enterprises Index ETF:Unit 450,236 -2,000 0.14 -0.00 -182,160 2026-05-08
330 0178 SA SA INTERNATIONAL HOLDINGS LIMITED:O 7,232,189 -200,000 0.23 -0.01 -184,000 2026-05-08
331 9880 UBTECH ROBOTICS CORP LTD:H 123,700 -1,700 0.03 -0.00 -192,780 2026-05-08
332 2331 LI NING COMPANY LIMITED:O 357,916 -11,000 0.01 -0.00 -213,840 2026-05-08
333 3888 Kingsoft Corporation Limited:O 1,089,200 -8,600 0.08 -0.00 -217,408 2026-05-08
334 0023 BANK OF EAST ASIA, LIMITED (THE):O 28,029,110 -16,000 1.06 -0.00 -224,160 2026-05-08
335 2582 Jiangsu Guofu Hydrogen Energy Equipment Co., Ltd.:H 88,400 -8,000 0.09 -0.01 -229,760 2026-05-08
336 1038 CK Infrastructure Holdings Limited:O 1,487,000 -3,500 0.06 -0.00 -230,125 2026-05-08
337 2632 Jiangsu New Vision Automotive Electronics Co., Ltd.:H 0 -2,000 0.00 -0.00 -232,000 2026-05-08
338 1772 GANFENG LITHIUM GROUP CO., LTD.:H 224,240 -2,800 0.05 -0.00 -232,960 2026-05-08
339 9911 Newborn Town Inc.:O 508,000 -24,000 0.04 -0.00 -234,720 2026-05-08
340 0123 Yuexiu Property Company Limited:O 6,421,868 -53,149 0.16 -0.00 -241,296 2026-05-08
341 1133 Harbin Electric Company Limited:H 626,000 -10,000 0.09 -0.00 -242,200 2026-05-08
342 0393 Glorious Sun Enterprises Limited:O 3,984,339 -176,000 0.27 -0.01 -244,640 2026-05-08
343 0268 KINGDEE INTERNATIONAL SOFTWARE GROUP COMPANY LIMITED:O 1,711,000 -27,000 0.05 -0.00 -252,180 2026-05-08
344 6809 Montage Technology Co., Ltd.:H 6,800 -700 0.01 -0.00 -262,920 2026-05-08
345 2865 Hainan Drinda New Energy Technology Co., Ltd.:O 26,400 -6,000 0.03 -0.01 -265,320 2026-05-08
346 0788 China Tower Corporation Limited:H 11,543,587 -24,000 0.25 -0.00 -265,920 2026-05-08
347 9926 Akeso, Inc.:O 65,000 -2,000 0.01 -0.00 -268,000 2026-05-08
348 0522 ASMPT Limited:O 75,700 -1,600 0.02 -0.00 -270,240 2026-05-08
349 6082 Shanghai Biren Technology Co., Ltd.:H 36,000 -4,800 0.00 -0.00 -271,920 2026-05-08
350 1548 Genscript Biotech Corporation:O 382,000 -18,000 0.02 -0.00 -273,780 2026-05-08
351 2427 Guanze Medical Information Industry (Holding) Co., Ltd.:O 0 -40,000 0.00 -0.00 -282,000 2026-05-08
352 0087 SWIRE PACIFIC LIMITED:B 1,009,165 -20,000 0.04 -0.00 -285,400 2026-05-08
353 9698 GDS Holdings Limited (KY):A 176,000 -7,000 0.01 -0.00 -308,560 2026-05-08
354 0267 CITIC Limited (HK):O 8,903,283 -23,000 0.03 -0.00 -313,030 2026-05-08
355 0857 PETROCHINA COMPANY LIMITED:H 22,192,440 -30,000 0.11 -0.00 -317,700 2026-05-08
356 0179 JOHNSON ELECTRIC HOLDINGS LIMITED:O 597,191 -12,500 0.06 -0.00 -352,750 2026-05-08
357 1299 AIA Group Limited:O 2,477,281 -4,400 0.02 -0.00 -381,040 2026-05-08
358 3466 Hang Seng High Dividend 30 Index ETF:Unit 1,404,800 -17,200 0.30 -0.00 -382,184 2026-05-08
359 6613 Lens Technology Co., Ltd.:H 518,400 -19,800 0.17 -0.01 -385,110 2026-05-08
360 0003 HONG KONG AND CHINA GAS COMPANY LIMITED (THE):O 59,068,715 -55,215 0.32 -0.00 -404,174 2026-05-08
361 1888 Kingboard Laminates Holdings Limited:O 1,829,463 -9,500 0.06 -0.00 -411,160 2026-05-08
362 6693 Chifeng Jilong Gold Mining Co., Ltd.:H 11,800 -10,000 0.00 -0.00 -457,000 2026-05-08
363 2888 STANDARD CHARTERED PLC:O 559,067 -2,350 0.03 -0.00 -467,650 2026-05-08
364 2628 CHINA LIFE INSURANCE COMPANY LIMITED:H 19,567,963 -15,000 0.26 -0.00 -468,900 2026-05-08
365 0293 CATHAY PACIFIC AIRWAYS LIMITED:O 6,406,090 -38,744 0.11 -0.00 -488,174 2026-05-08
366 0316 ORIENT OVERSEAS (INTERNATIONAL) LIMITED:O 188,845 -3,500 0.03 -0.00 -492,450 2026-05-08
367 3277 Gpixel Changchun Microelectronics Inc.:H 11,400 -6,300 0.00 -0.00 -510,300 2026-05-08
368 2259 Zijin Gold International Company Limited:O 61,015 -3,100 0.00 -0.00 -534,750 2026-05-08
369 0823 Link Real Estate Investment Trust:Unit 7,071,738 -13,700 0.27 -0.00 -562,248 2026-05-08
370 1928 Sands China Ltd.:O 1,918,400 -36,000 0.02 -0.00 -591,120 2026-05-08
371 1024 Kuaishou Technology:B 2,556,200 -11,200 0.07 -0.00 -593,040 2026-05-08
372 0285 BYD Electronic (International) Company Limited:O 935,166 -21,000 0.04 -0.00 -598,920 2026-05-08
373 3416 Global X HSCEI Components Covered Call Active ETF:Unit 9,293,000 -64,000 0.38 -0.00 -614,400 2026-05-08
374 1288 AGRICULTURAL BANK OF CHINA LIMITED:H 28,260,500 -119,000 0.09 -0.00 -706,860 2026-05-08
375 0998 China CITIC Bank Corporation Limited:H 5,293,443 -88,800 0.04 -0.00 -740,592 2026-05-08
376 2899 ZIJIN MINING GROUP CO., LTD.:H 4,982,250 -20,000 0.08 -0.00 -770,000 2026-05-08
377 7226 CSOP Hang Seng TECH Index Daily (2x) Leveraged Product:Unit 11,158,240 -208,600 0.31 -0.01 -864,021 2026-05-08
378 0358 Jiangxi Copper Company Limited:H 1,134,591 -23,000 0.08 -0.00 -904,820 2026-05-08
379 0700 TENCENT HOLDINGS LIMITED:O 1,706,809 -2,000 0.02 -0.00 -942,800 2026-05-08
380 0002 CLP HOLDINGS LIMITED:O 7,605,174 -13,000 0.30 -0.00 -978,900 2026-05-08
381 7200 CSOP Hang Seng Index Daily (2x) Leveraged Product:Unit 1,834,200 -184,000 0.41 -0.04 -1,120,560 2026-05-08
382 0016 SUN HUNG KAI PROPERTIES LIMITED:O 1,035,397 -8,500 0.04 -0.00 -1,202,750 2026-05-08
383 1347 HUA HONG SEMICONDUCTOR LIMITED:O 89,000 -10,000 0.01 -0.00 -1,308,000 2026-05-08
384 0992 LENOVO GROUP LIMITED:O 6,932,000 -110,000 0.06 -0.00 -1,379,400 2026-05-08
385 0006 Power Assets Holdings Limited:O 4,533,647 -22,000 0.21 -0.00 -1,416,800 2026-05-08
386 3988 BANK OF CHINA LIMITED:H 150,847,697 -314,800 0.18 -0.00 -1,608,628 2026-05-08
387 0688 CHINA OVERSEAS LAND & INVESTMENT LIMITED:O 2,643,920 -103,000 0.02 -0.00 -1,639,760 2026-05-08
388 3323 China National Building Material Company Limited:H 8,179,418 -316,000 0.22 -0.01 -1,832,800 2026-05-08
389 2318 PING AN INSURANCE (GROUP) COMPANY OF CHINA, LTD.:H 7,779,402 -29,500 0.10 -0.00 -1,935,200 2026-05-08
390 0386 CHINA PETROLEUM & CHEMICAL CORPORATION:H 38,721,150 -556,000 0.16 -0.00 -2,563,160 2026-05-08
391 2800 Tracker Fund of Hong Kong:Unit 21,097,992 -102,000 0.41 -0.00 -2,703,000 2026-05-08
392 0939 CHINA CONSTRUCTION BANK CORPORATION:H 94,030,716 -310,700 0.04 -0.00 -2,721,732 2026-05-08
393 0005 HSBC HOLDINGS PLC:O 35,306,389 -20,800 0.21 -0.00 -2,884,960 2026-05-08
394 0001 CK Hutchison Holdings Limited:O 4,401,355 -40,500 0.11 -0.00 -2,968,650 2026-05-08
395 9988 Alibaba Group Holding Limited (KY):O 6,857,869 -26,300 0.04 -0.00 -3,655,700 2026-05-08
396 0388 HONG KONG EXCHANGES AND CLEARING LIMITED:O 3,364,008 -11,200 0.27 -0.00 -4,751,040 2026-05-08
397 9888 Baidu, Inc.:A 569,150 -35,400 0.03 -0.00 -5,140,080 2026-05-08
398 0981 SEMICONDUCTOR MANUFACTURING INTERNATIONAL CORPORATION:O 2,953,200 -94,400 0.04 -0.00 -6,924,240 2026-05-08
399 0941 China Mobile Limited (HK):O 10,899,349 -150,000 0.05 -0.00 -12,817,500 2026-05-08

Webb-site Database - Powered By Linux Group

Back to top